createdAt,value
2023-04-27T00:01:48.694Z,60.52
2023-04-27T00:05:53.411Z,60.93
2023-04-27T00:09:56.634Z,61.39
2023-04-27T00:14:00.352Z,61.39
2023-04-27T00:18:05.484Z,61.56
2023-04-27T00:22:09.100Z,62.88
2023-04-27T00:26:12.890Z,63.21
2023-04-27T00:30:16.855Z,63.89
2023-04-27T00:34:21.497Z,63.89
2023-04-27T00:38:25.635Z,64.49
2023-04-27T00:42:29.058Z,64.35
2023-04-27T00:46:33.093Z,64.49
2023-04-27T00:50:38.865Z,64.53
2023-04-27T00:54:42.625Z,64.24
2023-04-27T00:58:48.548Z,64.42
2023-04-27T01:02:54.427Z,64.39
2023-04-27T01:06:59.765Z,64.73
2023-04-27T01:11:03.590Z,64.42
2023-04-27T01:15:08.572Z,64.20
2023-04-27T01:19:12.360Z,64.56
2023-04-27T01:23:19.376Z,64.28
2023-04-27T01:27:23.135Z,64.35
2023-04-27T01:31:26.584Z,63.79
2023-04-27T01:35:30.027Z,63.74
2023-04-27T01:39:35.443Z,64.11
2023-04-27T01:43:38.808Z,64.31
2023-04-27T01:47:43.200Z,64.54
2023-04-27T01:51:46.503Z,64.23
2023-04-27T01:59:54.926Z,64.40
2023-04-27T02:03:58.477Z,64.15
2023-04-27T02:08:02.922Z,65.44
2023-04-27T02:12:08.605Z,65.22
2023-04-27T02:16:11.978Z,65.32
2023-04-27T02:20:15.579Z,65.23
2023-04-27T02:24:19.296Z,65.48
2023-04-27T02:28:24.378Z,65.33
2023-04-27T02:32:28.561Z,65.55
2023-04-27T02:36:32.603Z,65.84
2023-04-27T02:40:35.586Z,65.82
2023-04-27T02:44:41.227Z,65.26
2023-04-27T02:48:44.998Z,65.34
2023-04-27T02:52:48.199Z,65.59
2023-04-27T02:56:52.372Z,65.65
2023-04-27T03:00:58.955Z,65.45
2023-04-27T03:05:02.476Z,65.39
2023-04-27T03:09:06.390Z,65.46
2023-04-27T03:13:10.606Z,65.43
2023-04-27T03:17:15.073Z,65.92
2023-04-27T03:21:18.550Z,65.70
2023-04-27T03:25:22.677Z,65.90
2023-04-27T03:29:26.268Z,65.44
2023-04-27T03:33:31.024Z,66.22
2023-04-27T03:37:34.694Z,66.35
2023-04-27T03:41:38.479Z,66.04
2023-04-27T03:45:42.084Z,65.88
2023-04-27T03:49:47.807Z,65.39
2023-04-27T03:53:51.262Z,66.10
2023-04-27T03:57:57.457Z,65.79
2023-04-27T04:02:01.449Z,65.79
2023-04-27T04:06:07.141Z,65.57
2023-04-27T04:10:11.729Z,64.96
2023-04-27T04:14:15.302Z,65.30
2023-04-27T04:18:20.282Z,65.07
2023-04-27T04:22:27.778Z,65.14
2023-04-27T04:26:32.612Z,65.21
2023-04-27T04:30:36.328Z,64.55
2023-04-27T04:34:40.284Z,64.53
2023-04-27T04:38:45.311Z,65.31
2023-04-27T04:42:48.629Z,64.92
2023-04-27T04:46:53.692Z,65.40
2023-04-27T04:50:57.495Z,65.48
2023-04-27T04:55:02.083Z,65.35
2023-04-27T04:59:05.259Z,64.95
2023-04-27T05:03:08.687Z,64.46
2023-04-27T05:07:14.916Z,64.31
2023-04-27T05:11:20.431Z,64.11
2023-04-27T05:15:23.774Z,64.07
2023-04-27T05:19:27.703Z,64.06
2023-04-27T05:23:30.958Z,63.47
2023-04-27T05:27:36.058Z,63.10
2023-04-27T05:31:39.445Z,62.89
2023-04-27T05:35:43.439Z,61.90
2023-04-27T05:39:48.825Z,61.98
2023-04-27T05:43:53.711Z,62.03
2023-04-27T05:47:57.357Z,61.40
2023-04-27T05:52:01.598Z,61.90
2023-04-27T05:56:07.333Z,60.83
2023-04-27T06:00:13.979Z,61.15
2023-04-27T06:04:17.767Z,60.16
2023-04-27T06:08:20.988Z,59.04
2023-04-27T06:12:24.784Z,60.34
2023-04-27T06:16:30.113Z,58.84
2023-04-27T06:20:35.781Z,58.16
2023-04-27T06:24:40.292Z,56.61
2023-04-27T06:28:43.414Z,56.83
2023-04-27T06:32:48.817Z,56.36
2023-04-27T06:36:52.695Z,56.68
2023-04-27T06:40:55.973Z,53.17
2023-04-27T06:45:01.619Z,52.54
2023-04-27T06:49:07.006Z,54.60
2023-04-27T06:53:10.746Z,53.98
2023-04-27T06:57:15.470Z,51.31
2023-04-27T07:01:19.100Z,51.71
2023-04-27T07:05:23.661Z,48.18
2023-04-27T07:09:28.102Z,50.09
2023-04-27T07:13:32.440Z,47.79
2023-04-27T07:17:36.525Z,48.92
2023-04-27T07:21:41.863Z,49.38
2023-04-27T07:25:45.870Z,48.61
2023-04-27T07:29:49.304Z,48.36
2023-04-27T07:33:53.361Z,48.14
2023-04-27T07:37:58.396Z,48.50
2023-04-27T07:42:03.650Z,47.41
2023-04-27T07:46:07.224Z,47.50
2023-04-27T07:50:12.933Z,46.46
2023-04-27T07:54:17.484Z,46.36
2023-04-27T07:58:22.040Z,45.90
2023-04-27T08:02:25.573Z,45.22
2023-04-27T08:06:30.078Z,43.82
2023-04-27T08:10:34.866Z,44.84
2023-04-27T08:14:38.152Z,44.00
2023-04-27T08:18:41.356Z,42.87
2023-04-27T08:22:45.119Z,42.93
2023-04-27T08:26:50.086Z,43.59
2023-04-27T08:30:53.228Z,42.68
2023-04-27T08:34:57.302Z,40.70
2023-04-27T08:39:00.513Z,41.63
2023-04-27T08:43:10.651Z,44.02
2023-04-27T08:47:13.936Z,40.47
2023-04-27T08:51:18.828Z,38.52
2023-04-27T08:55:22.520Z,42.09
2023-04-27T08:59:27.964Z,44.93
2023-04-27T09:03:31.485Z,38.32
2023-04-27T09:07:35.044Z,38.92
2023-04-27T09:11:39.487Z,36.95
2023-04-27T09:15:48.407Z,35.25
2023-04-27T09:19:51.885Z,34.84
2023-04-27T09:23:56.443Z,34.05
2023-04-27T09:28:01.295Z,35.19
2023-04-27T09:32:17.843Z,38.60
2023-04-27T09:36:22.236Z,35.74
2023-04-27T09:40:28.645Z,34.24
2023-04-27T09:44:32.951Z,34.44
2023-04-27T09:48:40.852Z,34.70
2023-04-27T09:52:44.307Z,30.99
2023-04-27T09:57:03.043Z,35.67
2023-04-27T10:01:16.478Z,36.39
2023-04-27T10:05:44.276Z,36.08
2023-04-27T10:09:49.581Z,31.97
2023-04-27T10:13:54.841Z,31.50
2023-04-27T10:18:05.866Z,33.87
2023-04-27T10:22:10.706Z,32.13
2023-04-27T10:26:14.743Z,32.98
2023-04-27T10:30:52.508Z,33.37
2023-04-27T10:35:06.698Z,34.66
2023-04-27T10:39:19.168Z,35.24
2023-04-27T10:43:27.058Z,34.35
2023-04-27T10:47:39.537Z,35.48
2023-04-27T10:51:42.958Z,31.10
2023-04-27T10:55:50.191Z,31.72
2023-04-27T10:59:55.702Z,35.93
2023-04-27T11:03:59.884Z,34.22
2023-04-27T11:08:07.472Z,33.00
2023-04-27T11:12:15.136Z,33.94
2023-04-27T11:16:20.907Z,34.31
2023-04-27T11:20:26.882Z,32.64
2023-04-27T11:24:30.073Z,31.36
2023-04-27T11:28:34.940Z,33.67
2023-04-27T11:32:38.121Z,33.90
2023-04-27T11:36:41.667Z,36.88
2023-04-27T11:40:45.095Z,32.23
2023-04-27T11:44:56.718Z,34.59
2023-04-27T11:49:04.223Z,32.25
2023-04-27T11:53:08.048Z,30.04
2023-04-27T11:57:11.971Z,30.07
2023-04-27T12:01:27.542Z,33.08
2023-04-27T12:05:37.623Z,39.10
2023-04-27T12:13:50.305Z,33.13
2023-04-27T12:17:54.751Z,30.34
2023-04-27T12:21:59.533Z,30.20
2023-04-27T12:26:03.144Z,31.44
2023-04-27T12:30:09.194Z,31.13
2023-04-27T12:34:13.991Z,33.20
2023-04-27T12:38:17.574Z,29.31
2023-04-27T12:42:24.557Z,31.40
2023-04-27T12:46:27.981Z,31.90
2023-04-27T12:50:32.946Z,31.06
2023-04-27T12:54:37.475Z,31.56
2023-04-27T12:58:42.186Z,33.84
2023-04-27T13:02:46.822Z,32.55
2023-04-27T13:06:51.476Z,33.84
2023-04-27T13:10:55.156Z,35.97
2023-04-27T13:14:58.172Z,35.77
2023-04-27T13:19:01.578Z,33.25
2023-04-27T13:23:06.696Z,32.48
2023-04-27T13:27:10.321Z,31.53
2023-04-27T13:31:13.775Z,33.67
2023-04-27T13:35:17.473Z,34.63
2023-04-27T13:39:22.498Z,32.47
2023-04-27T13:43:27.792Z,36.45
2023-04-27T13:47:36.845Z,33.59
2023-04-27T13:51:41.927Z,33.48
2023-04-27T13:55:46.912Z,32.08
2023-04-27T13:59:50.317Z,32.63
2023-04-27T14:03:53.725Z,33.38
2023-04-27T14:07:58.275Z,33.54
2023-04-27T14:12:03.204Z,33.03
2023-04-27T14:16:10.065Z,32.75
2023-04-27T14:20:13.832Z,32.61
2023-04-27T14:24:17.726Z,32.92
2023-04-27T14:28:24.122Z,31.13
2023-04-27T14:32:29.812Z,32.82
2023-04-27T14:36:33.503Z,31.89
2023-04-27T14:40:37.104Z,31.51
2023-04-27T14:44:42.046Z,30.47
2023-04-27T14:48:46.808Z,31.35
2023-04-27T14:52:49.990Z,31.38
2023-04-27T14:56:54.475Z,30.57
2023-04-27T15:00:59.382Z,32.25
2023-04-27T15:05:03.756Z,32.50
2023-04-27T15:09:07.251Z,33.34
2023-04-27T15:13:11.297Z,33.24
2023-04-27T15:17:15.913Z,34.17
2023-04-27T15:21:19.883Z,31.75
2023-04-27T15:25:23.150Z,33.14
2023-04-27T15:29:27.135Z,33.27
2023-04-27T15:33:33.014Z,35.80
2023-04-27T15:37:38.081Z,33.02
2023-04-27T15:41:41.826Z,34.53
2023-04-27T15:45:45.283Z,34.37
2023-04-27T15:49:57.315Z,34.37
2023-04-27T15:54:02.125Z,34.20
2023-04-27T15:58:05.264Z,33.74
2023-04-27T16:02:09.165Z,33.91
2023-04-27T16:06:13.711Z,36.10
2023-04-27T16:10:17.196Z,35.63
2023-04-27T16:14:20.550Z,34.52
2023-04-27T16:18:23.800Z,35.59
2023-04-27T16:22:29.270Z,35.58
2023-04-27T16:26:33.204Z,35.69
2023-04-27T16:30:38.450Z,36.50
2023-04-27T16:34:42.184Z,35.16
2023-04-27T16:38:46.725Z,36.41
2023-04-27T16:42:53.999Z,35.70
2023-04-27T16:46:57.110Z,37.58
2023-04-27T16:51:00.418Z,37.16
2023-04-27T16:55:07.717Z,38.22
2023-04-27T16:59:13.192Z,37.06
2023-04-27T17:03:16.793Z,36.99
2023-04-27T17:07:21.144Z,37.73
2023-04-27T17:11:26.644Z,38.67
2023-04-27T17:15:30.579Z,38.17
2023-04-27T17:19:34.055Z,38.46
2023-04-27T17:23:40.061Z,38.98
2023-04-27T17:27:44.785Z,39.17
2023-04-27T17:31:48.641Z,39.00
2023-04-27T17:35:51.710Z,39.94
2023-04-27T17:39:55.280Z,39.36
2023-04-27T17:44:12.629Z,40.16
2023-04-27T17:48:18.486Z,43.87
2023-04-27T17:52:21.714Z,45.75
2023-04-27T17:56:25.447Z,46.77
2023-04-27T18:00:30.653Z,45.45
2023-04-27T18:04:36.526Z,44.61
2023-04-27T18:08:39.642Z,44.23
2023-04-27T18:12:43.222Z,44.30
2023-04-27T18:16:47.659Z,44.77
2023-04-27T18:20:53.040Z,44.58
2023-04-27T18:24:56.105Z,45.55
2023-04-27T18:29:00.223Z,44.68
2023-04-27T18:33:05.181Z,45.64
2023-04-27T18:37:10.711Z,45.46
2023-04-27T18:41:13.630Z,44.76
2023-04-27T18:45:17.973Z,44.41
2023-04-27T18:49:22.773Z,45.42
2023-04-27T18:53:26.714Z,47.70
2023-04-27T18:57:29.841Z,47.48
2023-04-27T19:01:33.986Z,46.09
2023-04-27T19:05:40.842Z,45.65
2023-04-27T19:09:44.609Z,45.41
2023-04-27T19:13:47.635Z,46.45
2023-04-27T19:18:02.233Z,47.92
2023-04-27T19:22:14.086Z,47.48
2023-04-27T19:26:18.876Z,48.52
2023-04-27T19:30:22.408Z,48.70
2023-04-27T19:34:28.111Z,48.34
2023-04-27T19:38:33.054Z,47.82
2023-04-27T19:42:36.635Z,48.20
2023-04-27T19:46:39.963Z,48.75
2023-04-27T19:50:43.614Z,48.31
2023-04-27T19:54:52.414Z,52.53
2023-04-27T19:58:57.155Z,52.69
2023-04-27T20:03:00.566Z,52.22
2023-04-27T20:07:05.883Z,51.24
2023-04-27T20:11:12.527Z,51.74
2023-04-27T20:15:15.813Z,52.98
2023-04-27T20:19:19.752Z,52.30
2023-04-27T20:23:23.274Z,51.67
2023-04-27T20:27:27.874Z,51.33
2023-04-27T20:31:33.037Z,51.66
2023-04-27T20:35:37.382Z,51.26
2023-04-27T20:39:41.546Z,51.05
2023-04-27T20:43:46.255Z,51.48
2023-04-27T20:47:50.966Z,53.42
2023-04-27T20:51:55.814Z,54.36
2023-04-27T20:55:59.786Z,54.50
2023-04-27T21:00:05.351Z,54.02
2023-04-27T21:04:09.298Z,54.62
2023-04-27T21:08:12.812Z,54.05
2023-04-27T21:12:18.144Z,55.18
2023-04-27T21:16:22.789Z,54.23
2023-04-27T21:20:26.557Z,54.04
2023-04-27T21:24:30.414Z,54.08
2023-04-27T21:28:33.643Z,54.54
2023-04-27T21:32:38.647Z,55.77
2023-04-27T21:36:41.997Z,58.60
2023-04-27T21:40:45.560Z,58.54
2023-04-27T21:44:48.669Z,58.38
2023-04-27T21:48:53.603Z,58.17
2023-04-27T21:52:56.707Z,58.83
2023-04-27T21:57:00.028Z,59.44
2023-04-27T22:01:03.112Z,59.31
2023-04-27T22:05:08.218Z,59.52
2023-04-27T22:09:12.474Z,59.82
2023-04-27T22:13:19.389Z,59.70
2023-04-27T22:17:23.894Z,59.83
2023-04-27T22:21:29.309Z,60.67
2023-04-27T22:25:32.868Z,60.80
2023-04-27T22:29:36.403Z,60.87
2023-04-27T22:33:39.423Z,60.93
2023-04-27T22:37:45.798Z,61.67
2023-04-27T22:41:49.116Z,61.64
2023-04-27T22:45:52.388Z,62.03
2023-04-27T22:49:55.864Z,61.99
2023-04-27T22:54:00.821Z,62.76
2023-04-27T22:58:04.201Z,62.85
2023-04-27T23:02:08.322Z,63.41
2023-04-27T23:06:14.378Z,63.09
2023-04-27T23:10:19.437Z,64.48
2023-04-27T23:14:22.829Z,64.70
2023-04-27T23:18:26.825Z,64.83
2023-04-27T23:22:30.083Z,65.26
2023-04-27T23:26:34.985Z,65.84
2023-04-27T23:30:38.160Z,65.81
2023-04-27T23:34:41.729Z,65.80
2023-04-27T23:38:44.752Z,65.79
2023-04-27T23:42:52.400Z,66.08
2023-04-27T23:46:55.972Z,66.11
2023-04-27T23:51:03.700Z,65.95
2023-04-27T23:55:08.502Z,66.28
2023-04-27T23:59:15.419Z,66.58
